sensor_id;sensor_type;location;lat;lon;timestamp;pressure;altitude;pressure_sealevel;temperature;humidity
6668;BME280;3370;47.712;9.082;2023-08-30T00:00:47;96543.94;;;12.06;100.00
6668;BME280;3370;47.712;9.082;2023-08-30T00:03:13;96541.25;;;12.07;100.00
6668;BME280;3370;47.712;9.082;2023-08-30T00:05:40;96541.91;;;12.11;100.00
6668;BME280;3370;47.712;9.082;2023-08-30T00:08:06;96538.41;;;12.12;100.00
6668;BME280;3370;47.712;9.082;2023-08-30T00:10:32;96541.44;;;12.19;100.00
6668;BME280;3370;47.712;9.082;2023-08-30T00:12:58;96538.22;;;12.15;100.00
6668;BME280;3370;47.712;9.082;2023-08-30T00:15:24;96537.41;;;12.15;100.00
6668;BME280;3370;47.712;9.082;2023-08-30T00:17:50;96544.84;;;12.19;100.00
6668;BME280;3370;47.712;9.082;2023-08-30T00:20:18;96539.03;;;12.16;100.00
6668;BME280;3370;47.712;9.082;2023-08-30T00:22:44;96536.56;;;12.14;100.00
6668;BME280;3370;47.712;9.082;2023-08-30T00:25:10;96541.72;;;12.14;100.00
6668;BME280;3370;47.712;9.082;2023-08-30T00:27:36;96534.81;;;12.15;100.00
6668;BME280;3370;47.712;9.082;2023-08-30T00:30:02;96541.72;;;12.14;100.00
6668;BME280;3370;47.712;9.082;2023-08-30T00:32:27;96543.38;;;12.15;100.00
6668;BME280;3370;47.712;9.082;2023-08-30T00:34:53;96542.34;;;12.18;100.00
6668;BME280;3370;47.712;9.082;2023-08-30T00:37:19;96537.41;;;12.15;100.00
6668;BME280;3370;47.712;9.082;2023-08-30T00:39:44;96535.72;;;12.14;100.00
6668;BME280;3370;47.712;9.082;2023-08-30T00:42:10;96532.25;;;12.15;100.00
6668;BME280;3370;47.712;9.082;2023-08-30T00:44:36;96539.78;;;12.18;100.00
6668;BME280;3370;47.712;9.082;2023-08-30T00:47:03;96537.56;;;12.12;100.00
6668;BME280;3370;47.712;9.082;2023-08-30T00:49:32;96527.28;;;12.12;100.00
6668;BME280;3370;47.712;9.082;2023-08-30T00:52:05;96517.13;;;12.08;100.00
6668;BME280;3370;47.712;9.082;2023-08-30T00:54:32;96522.28;;;12.08;100.00
6668;BME280;3370;47.712;9.082;2023-08-30T00:56:58;96520.44;;;12.11;100.00
6668;BME280;3370;47.712;9.082;2023-08-30T00:59:26;96522.94;;;12.12;100.00
6668;BME280;3370;47.712;9.082;2023-08-30T01:01:52;96525.41;;;12.14;100.00
6668;BME280;3370;47.712;9.082;2023-08-30T01:04:19;96510.44;;;12.20;100.00
6668;BME280;3370;47.712;9.082;2023-08-30T01:06:45;96519.06;;;12.19;100.00
6668;BME280;3370;47.712;9.082;2023-08-30T01:09:11;96514.00;;;12.18;100.00
6668;BME280;3370;47.712;9.082;2023-08-30T01:12:07;96509.78;;;12.17;100.00
6668;BME280;3370;47.712;9.082;2023-08-30T01:14:54;96508.28;;;12.13;100.00
6668;BME280;3370;47.712;9.082;2023-08-30T01:17:23;96506.66;;;12.12;100.00
6668;BME280;3370;47.712;9.082;2023-08-30T01:20:05;96501.50;;;12.12;100.00
6668;BME280;3370;47.712;9.082;2023-08-30T01:28:40;96493.59;;;12.00;100.00
6668;BME280;3370;47.712;9.082;2023-08-30T01:31:09;96485.94;;;11.99;100.00
6668;BME280;3370;47.712;9.082;2023-08-30T01:33:38;96488.44;;;12.00;100.00
6668;BME280;3370;47.712;9.082;2023-08-30T01:36:05;96486.75;;;11.99;100.00
6668;BME280;3370;47.712;9.082;2023-08-30T01:38:32;96487.59;;;12.00;100.00
6668;BME280;3370;47.712;9.082;2023-08-30T01:40:59;96493.38;;;12.03;100.00
6668;BME280;3370;47.712;9.082;2023-08-30T01:43:30;96490.06;;;12.01;100.00
6668;BME280;3370;47.712;9.082;2023-08-30T01:45:58;96490.88;;;12.02;100.00
6668;BME280;3370;47.712;9.082;2023-08-30T01:48:26;96488.78;;;11.94;100.00
6668;BME280;3370;47.712;9.082;2023-08-30T01:50:53;96488.97;;;11.91;100.00
6668;BME280;3370;47.712;9.082;2023-08-30T01:53:24;96490.75;;;11.89;100.00
6668;BME280;3370;47.712;9.082;2023-08-30T01:55:50;96503.75;;;11.87;100.00
6668;BME280;3370;47.712;9.082;2023-08-30T01:58:16;96495.91;;;11.89;100.00
6668;BME280;3370;47.712;9.082;2023-08-30T02:00:42;96496.84;;;11.88;100.00
6668;BME280;3370;47.712;9.082;2023-08-30T02:03:12;96487.44;;;11.87;100.00
6668;BME280;3370;47.712;9.082;2023-08-30T02:08:16;96496.75;;;11.89;100.00
6668;BME280;3370;47.712;9.082;2023-08-30T02:10:52;96495.09;;;11.88;100.00
6668;BME280;3370;47.712;9.082;2023-08-30T02:13:26;96500.09;;;11.92;100.00
6668;BME280;3370;47.712;9.082;2023-08-30T02:15:56;96495.78;;;11.92;100.00
6668;BME280;3370;47.712;9.082;2023-08-30T02:18:25;96488.03;;;11.92;100.00
6668;BME280;3370;47.712;9.082;2023-08-30T02:20:52;96492.38;;;11.92;100.00
6668;BME280;3370;47.712;9.082;2023-08-30T02:23:18;96485.47;;;11.92;100.00
6668;BME280;3370;47.712;9.082;2023-08-30T02:25:44;96492.28;;;11.93;100.00
6668;BME280;3370;47.712;9.082;2023-08-30T02:28:10;96490.44;;;11.95;100.00
6668;BME280;3370;47.712;9.082;2023-08-30T02:30:36;96488.44;;;12.00;100.00
6668;BME280;3370;47.712;9.082;2023-08-30T02:33:01;96486.59;;;12.02;100.00
6668;BME280;3370;47.712;9.082;2023-08-30T02:35:27;96483.81;;;12.05;100.00
6668;BME280;3370;47.712;9.082;2023-08-30T02:37:53;96484.00;;;12.02;100.00
6668;BME280;3370;47.712;9.082;2023-08-30T02:40:19;96481.44;;;12.02;100.00
6668;BME280;3370;47.712;9.082;2023-08-30T02:42:44;96486.59;;;12.02;100.00
6668;BME280;3370;47.712;9.082;2023-08-30T02:45:10;96488.22;;;12.03;100.00
6668;BME280;3370;47.712;9.082;2023-08-30T02:47:36;96488.22;;;12.03;100.00
6668;BME280;3370;47.712;9.082;2023-08-30T02:50:02;96486.50;;;12.04;100.00
6668;BME280;3370;47.712;9.082;2023-08-30T02:52:28;96488.97;;;12.05;100.00
6668;BME280;3370;47.712;9.082;2023-08-30T02:54:53;96489.91;;;12.04;100.00
6668;BME280;3370;47.712;9.082;2023-08-30T02:57:19;96483.06;;;12.03;100.00
6668;BME280;3370;47.712;9.082;2023-08-30T02:59:45;96480.50;;;12.03;100.00
6668;BME280;3370;47.712;9.082;2023-08-30T03:02:11;96478.56;;;12.07;100.00
6668;BME280;3370;47.712;9.082;2023-08-30T03:04:36;96476.06;;;12.05;100.00
6668;BME280;3370;47.712;9.082;2023-08-30T03:07:04;96482.09;;;12.06;100.00
6668;BME280;3370;47.712;9.082;2023-08-30T03:09:30;96480.50;;;12.03;100.00
6668;BME280;3370;47.712;9.082;2023-08-30T03:11:55;96476.38;;;12.01;100.00
6668;BME280;3370;47.712;9.082;2023-08-30T03:14:21;96472.59;;;12.06;100.00
6668;BME280;3370;47.712;9.082;2023-08-30T03:16:47;96478.84;;;12.02;100.00
6668;BME280;3370;47.712;9.082;2023-08-30T03:19:13;96482.34;;;12.01;100.00
6668;BME280;3370;47.712;9.082;2023-08-30T03:21:39;96477.75;;;12.06;100.00
6668;BME280;3370;47.712;9.082;2023-08-30T03:24:05;96477.91;;;12.03;100.00
6668;BME280;3370;47.712;9.082;2023-08-30T03:26:30;96479.13;;;11.98;100.00
6668;BME280;3370;47.712;9.082;2023-08-30T03:28:56;96474.91;;;11.97;100.00
6668;BME280;3370;47.712;9.082;2023-08-30T03:31:22;96464.69;;;11.95;100.00
6668;BME280;3370;47.712;9.082;2023-08-30T03:33:49;96463.00;;;11.94;100.00
6668;BME280;3370;47.712;9.082;2023-08-30T03:36:16;96459.53;;;11.95;100.00
6668;BME280;3370;47.712;9.082;2023-08-30T03:38:44;96462.09;;;11.95;100.00
6668;BME280;3370;47.712;9.082;2023-08-30T03:41:11;96452.72;;;11.94;100.00
6668;BME280;3370;47.712;9.082;2023-08-30T03:43:37;96450.22;;;11.93;100.00
6668;BME280;3370;47.712;9.082;2023-08-30T03:46:03;96460.53;;;11.93;100.00
6668;BME280;3370;47.712;9.082;2023-08-30T03:48:30;96461.38;;;11.93;100.00
6668;BME280;3370;47.712;9.082;2023-08-30T03:50:56;96459.53;;;11.95;100.00
6668;BME280;3370;47.712;9.082;2023-08-30T03:53:23;96458.72;;;11.95;100.00
6668;BME280;3370;47.712;9.082;2023-08-30T03:55:49;96459.72;;;11.92;100.00
6668;BME280;3370;47.712;9.082;2023-08-30T03:58:17;96466.44;;;11.95;100.00
6668;BME280;3370;47.712;9.082;2023-08-30T04:00:43;96466.31;;;11.96;100.00
6668;BME280;3370;47.712;9.082;2023-08-30T04:03:10;96468.00;;;11.97;100.00
6668;BME280;3370;47.712;9.082;2023-08-30T04:05:37;96466.97;;;12.00;100.00
6668;BME280;3370;47.712;9.082;2023-08-30T04:08:04;96471.22;;;12.01;100.00
6668;BME280;3370;47.712;9.082;2023-08-30T04:10:37;96468.47;;;12.04;100.00
6668;BME280;3370;47.712;9.082;2023-08-30T04:13:05;96467.63;;;12.03;100.00
6668;BME280;3370;47.712;9.082;2023-08-30T04:15:38;96471.31;;;11.99;100.00
6668;BME280;3370;47.712;9.082;2023-08-30T04:18:05;96475.72;;;11.97;100.00
6668;BME280;3370;47.712;9.082;2023-08-30T04:20:32;96478.66;;;12.05;100.00
6668;BME280;3370;47.712;9.082;2023-08-30T04:22:58;96472.59;;;12.06;100.00
6668;BME280;3370;47.712;9.082;2023-08-30T04:25:27;96481.22;;;12.05;100.00
6668;BME280;3370;47.712;9.082;2023-08-30T04:27:53;96478.66;;;12.05;100.00
6668;BME280;3370;47.712;9.082;2023-08-30T04:30:19;96482.91;;;12.06;100.00
6668;BME280;3370;47.712;9.082;2023-08-30T04:32:45;96477.00;;;12.04;100.00
6668;BME280;3370;47.712;9.082;2023-08-30T04:35:11;96481.06;;;12.08;100.00
6668;BME280;3370;47.712;9.082;2023-08-30T04:37:37;96475.09;;;12.08;100.00
6668;BME280;3370;47.712;9.082;2023-08-30T04:40:08;96477.56;;;12.10;100.00
6668;BME280;3370;47.712;9.082;2023-08-30T04:42:37;96480.50;;;12.03;100.00
6668;BME280;3370;47.712;9.082;2023-08-30T04:45:06;96484.09;;;12.01;100.00
6668;BME280;3370;47.712;9.082;2023-08-30T04:47:32;96488.44;;;12.00;100.00
6668;BME280;3370;47.712;9.082;2023-08-30T04:49:59;96489.16;;;12.02;100.00
6668;BME280;3370;47.712;9.082;2023-08-30T04:52:25;96490.81;;;12.03;100.00
6668;BME280;3370;47.712;9.082;2023-08-30T04:54:51;96479.41;;;12.07;100.00
6668;BME280;3370;47.712;9.082;2023-08-30T04:57:17;96487.31;;;12.04;100.00
6668;BME280;3370;47.712;9.082;2023-08-30T04:59:44;96482.09;;;12.06;100.00
6668;BME280;3370;47.712;9.082;2023-08-30T05:02:10;96482.91;;;12.06;100.00
6668;BME280;3370;47.712;9.082;2023-08-30T05:04:36;96481.13;;;12.07;100.00
6668;BME280;3370;47.712;9.082;2023-08-30T05:07:03;96485.31;;;12.10;100.00
6668;BME280;3370;47.712;9.082;2023-08-30T05:09:30;96482.72;;;12.10;100.00
6668;BME280;3370;47.712;9.082;2023-08-30T05:11:56;96477.28;;;12.14;100.00
6668;BME280;3370;47.712;9.082;2023-08-30T05:14:22;96477.19;;;12.16;100.00
6668;BME280;3370;47.712;9.082;2023-08-30T05:16:49;96480.06;;;12.11;100.00
6668;BME280;3370;47.712;9.082;2023-08-30T05:19:15;96475.72;;;12.12;100.00
6668;BME280;3370;47.712;9.082;2023-08-30T05:21:44;96473.25;;;12.10;100.00
6668;BME280;3370;47.712;9.082;2023-08-30T05:24:10;96467.44;;;12.06;100.00
6668;BME280;3370;47.712;9.082;2023-08-30T05:26:37;96463.97;;;12.07;100.00
6668;BME280;3370;47.712;9.082;2023-08-30T05:29:03;96472.22;;;12.13;100.00
6668;BME280;3370;47.712;9.082;2023-08-30T05:31:29;96458.41;;;12.14;100.00
6668;BME280;3370;47.712;9.082;2023-08-30T05:33:55;96462.66;;;12.15;100.00
6668;BME280;3370;47.712;9.082;2023-08-30T05:36:21;96471.22;;;12.15;100.00
6668;BME280;3370;47.712;9.082;2023-08-30T05:38:46;96478.00;;;12.16;100.00
6668;BME280;3370;47.712;9.082;2023-08-30T05:41:12;96477.00;;;12.19;100.00
6668;BME280;3370;47.712;9.082;2023-08-30T05:43:38;96470.09;;;12.19;100.00
6668;BME280;3370;47.712;9.082;2023-08-30T05:46:04;96473.31;;;12.23;100.00
6668;BME280;3370;47.712;9.082;2023-08-30T05:48:30;96470.75;;;12.23;100.00
6668;BME280;3370;47.712;9.082;2023-08-30T05:50:57;96470.47;;;12.27;100.00
6668;BME280;3370;47.712;9.082;2023-08-30T05:53:23;96462.84;;;12.26;100.00
6668;BME280;3370;47.712;9.082;2023-08-30T05:55:49;96474.69;;;12.28;100.00
6668;BME280;3370;47.712;9.082;2023-08-30T05:58:15;96481.44;;;12.31;100.00
6668;BME280;3370;47.712;9.082;2023-08-30T06:00:41;96483.25;;;12.29;100.00
6668;BME280;3370;47.712;9.082;2023-08-30T06:03:07;96481.44;;;12.31;100.00
6668;BME280;3370;47.712;9.082;2023-08-30T06:05:33;96480.31;;;12.35;100.00
6668;BME280;3370;47.712;9.082;2023-08-30T06:07:59;96482.97;;;12.34;100.00
6668;BME280;3370;47.712;9.082;2023-08-30T06:10:27;96491.25;;;12.39;100.00
6668;BME280;3370;47.712;9.082;2023-08-30T06:12:53;96489.31;;;12.42;100.00
6668;BME280;3370;47.712;9.082;2023-08-30T06:15:19;96488.59;;;12.40;100.00
6668;BME280;3370;47.712;9.082;2023-08-30T06:17:44;96494.47;;;12.42;100.00
6668;BME280;3370;47.712;9.082;2023-08-30T06:20:12;96495.94;;;12.46;100.00
6668;BME280;3370;47.712;9.082;2023-08-30T06:22:38;96502.78;;;12.48;100.00
6668;BME280;3370;47.712;9.082;2023-08-30T06:25:05;96499.97;;;12.51;100.00
6668;BME280;3370;47.712;9.082;2023-08-30T06:27:32;96507.53;;;12.54;100.00
6668;BME280;3370;47.712;9.082;2023-08-30T06:29:58;96497.03;;;12.57;100.00
6668;BME280;3370;47.712;9.082;2023-08-30T06:32:24;96504.69;;;12.58;100.00
6668;BME280;3370;47.712;9.082;2023-08-30T06:34:49;96505.31;;;12.62;100.00
6668;BME280;3370;47.712;9.082;2023-08-30T06:37:15;96492.22;;;12.65;100.00
6668;BME280;3370;47.712;9.082;2023-08-30T06:39:41;96493.59;;;12.71;100.00
6668;BME280;3370;47.712;9.082;2023-08-30T06:42:07;96491.56;;;12.76;100.00
6668;BME280;3370;47.712;9.082;2023-08-30T06:44:33;96498.06;;;12.81;100.00
6668;BME280;3370;47.712;9.082;2023-08-30T06:46:58;96489.25;;;12.85;100.00
6668;BME280;3370;47.712;9.082;2023-08-30T06:49:24;96494.91;;;12.91;100.00
6668;BME280;3370;47.712;9.082;2023-08-30T06:51:50;96497.22;;;12.95;100.00
6668;BME280;3370;47.712;9.082;2023-08-30T06:54:16;96487.44;;;13.00;100.00
6668;BME280;3370;47.712;9.082;2023-08-30T06:57:00;96491.28;;;13.08;100.00
6668;BME280;3370;47.712;9.082;2023-08-30T06:59:27;96491.72;;;13.14;100.00
6668;BME280;3370;47.712;9.082;2023-08-30T07:01:53;96483.56;;;13.20;100.00
6668;BME280;3370;47.712;9.082;2023-08-30T07:04:18;96489.28;;;13.26;100.00
6668;BME280;3370;47.712;9.082;2023-08-30T07:06:44;96487.25;;;13.31;100.00
6668;BME280;3370;47.712;9.082;2023-08-30T07:09:10;96482.59;;;13.36;100.00
6668;BME280;3370;47.712;9.082;2023-08-30T07:11:38;96478.59;;;13.45;100.00
6668;BME280;3370;47.712;9.082;2023-08-30T07:14:04;96468.69;;;13.51;100.00
6668;BME280;3370;47.712;9.082;2023-08-30T07:16:31;96468.69;;;13.51;100.00
6668;BME280;3370;47.712;9.082;2023-08-30T07:18:58;96475.19;;;13.57;100.00
6668;BME280;3370;47.712;9.082;2023-08-30T07:21:24;96467.88;;;13.64;100.00
6668;BME280;3370;47.712;9.082;2023-08-30T07:23:50;96477.69;;;13.58;100.00
6668;BME280;3370;47.712;9.082;2023-08-30T07:26:16;96476.03;;;13.70;100.00
6668;BME280;3370;47.712;9.082;2023-08-30T07:28:41;96470.47;;;13.76;100.00
6668;BME280;3370;47.712;9.082;2023-08-30T07:31:07;96466.44;;;13.85;100.00
6668;BME280;3370;47.712;9.082;2023-08-30T07:33:33;96470.16;;;13.81;100.00
6668;BME280;3370;47.712;9.082;2023-08-30T07:35:59;96468.69;;;13.64;100.00
6668;BME280;3370;47.712;9.082;2023-08-30T07:38:25;96462.19;;;13.71;100.00
6668;BME280;3370;47.712;9.082;2023-08-30T07:40:50;96466.84;;;13.79;100.00
6668;BME280;3370;47.712;9.082;2023-08-30T07:43:16;96466.22;;;13.88;100.00
6668;BME280;3370;47.712;9.082;2023-08-30T07:45:42;96464.34;;;13.90;100.00
6668;BME280;3370;47.712;9.082;2023-08-30T07:48:08;96462.19;;;13.97;100.00
6668;BME280;3370;47.712;9.082;2023-08-30T07:50:33;96469.31;;;13.93;100.00
6668;BME280;3370;47.712;9.082;2023-08-30T07:52:59;96477.78;;;13.95;100.00
6668;BME280;3370;47.712;9.082;2023-08-30T07:55:25;96471.00;;;13.82;100.00
6668;BME280;3370;47.712;9.082;2023-08-30T07:57:51;96475.75;;;13.88;100.00
6668;BME280;3370;47.712;9.082;2023-08-30T08:00:17;96476.88;;;13.96;100.00
6668;BME280;3370;47.712;9.082;2023-08-30T08:02:43;96481.50;;;13.53;100.00
6668;BME280;3370;47.712;9.082;2023-08-30T08:05:09;96479.38;;;13.72;100.00
6668;BME280;3370;47.712;9.082;2023-08-30T08:07:38;96474.69;;;13.90;100.00
6668;BME280;3370;47.712;9.082;2023-08-30T08:10:05;96475.94;;;13.72;100.00
6668;BME280;3370;47.712;9.082;2023-08-30T08:12:33;96480.19;;;13.98;100.00
6668;BME280;3370;47.712;9.082;2023-08-30T08:14:59;96477.69;;;13.84;100.00
6668;BME280;3370;47.712;9.082;2023-08-30T08:17:25;96477.59;;;13.98;100.00
6668;BME280;3370;47.712;9.082;2023-08-30T08:19:50;96488.22;;;13.94;100.00
6668;BME280;3370;47.712;9.082;2023-08-30T08:22:16;96491.25;;;14.00;100.00
6668;BME280;3370;47.712;9.082;2023-08-30T08:24:43;96489.38;;;13.77;100.00
6668;BME280;3370;47.712;9.082;2023-08-30T08:27:11;96493.72;;;13.89;100.00
6668;BME280;3370;47.712;9.082;2023-08-30T08:29:38;96489.19;;;14.06;100.00
6668;BME280;3370;47.712;9.082;2023-08-30T08:32:04;96488.72;;;14.25;100.00
6668;BME280;3370;47.712;9.082;2023-08-30T08:34:30;96480.94;;;14.37;100.00
6668;BME280;3370;47.712;9.082;2023-08-30T08:36:55;96486.88;;;14.14;99.68
6668;BME280;3370;47.712;9.082;2023-08-30T08:39:21;96485.41;;;14.35;100.00
6668;BME280;3370;47.712;9.082;2023-08-30T08:41:48;96485.84;;;14.16;97.16
6668;BME280;3370;47.712;9.082;2023-08-30T08:44:13;96482.81;;;14.35;100.00
6668;BME280;3370;47.712;9.082;2023-08-30T08:46:41;96477.63;;;14.48;100.00
6668;BME280;3370;47.712;9.082;2023-08-30T08:49:16;96485.63;;;14.45;98.03
6668;BME280;3370;47.712;9.082;2023-08-30T08:51:44;96473.19;;;14.37;99.07
6668;BME280;3370;47.712;9.082;2023-08-30T08:54:12;96476.59;;;14.51;97.85
6668;BME280;3370;47.712;9.082;2023-08-30T08:56:39;96482.47;;;14.53;98.22
6668;BME280;3370;47.712;9.082;2023-08-30T08:59:06;96487.16;;;14.48;96.75
6668;BME280;3370;47.712;9.082;2023-08-30T09:01:34;96478.22;;;14.52;98.16
6668;BME280;3370;47.712;9.082;2023-08-30T09:04:06;96484.25;;;14.52;96.92
6668;BME280;3370;47.712;9.082;2023-08-30T09:06:36;96486.00;;;14.65;98.58
6668;BME280;3370;47.712;9.082;2023-08-30T09:09:04;96484.09;;;14.80;97.64
6668;BME280;3370;47.712;9.082;2023-08-30T09:11:31;96483.69;;;14.73;96.50
6668;BME280;3370;47.712;9.082;2023-08-30T09:13:57;96491.91;;;14.54;97.22
6668;BME280;3370;47.712;9.082;2023-08-30T09:16:23;96486.59;;;14.81;98.00
6668;BME280;3370;47.712;9.082;2023-08-30T09:21:24;96485.13;;;14.77;96.70
6668;BME280;3370;47.712;9.082;2023-08-30T09:24:06;96490.59;;;14.85;93.44
6668;BME280;3370;47.712;9.082;2023-08-30T09:26:34;96481.81;;;15.12;99.34
6668;BME280;3370;47.712;9.082;2023-08-30T09:29:05;96485.53;;;14.84;92.65
6668;BME280;3370;47.712;9.082;2023-08-30T09:31:39;96488.28;;;14.93;96.16
6668;BME280;3370;47.712;9.082;2023-08-30T09:34:07;96495.88;;;15.08;98.52
6668;BME280;3370;47.712;9.082;2023-08-30T09:36:41;96486.75;;;14.91;94.61
6668;BME280;3370;47.712;9.082;2023-08-30T09:39:12;96485.22;;;15.12;96.57
6668;BME280;3370;47.712;9.082;2023-08-30T09:41:43;96490.00;;;15.06;96.95
6668;BME280;3370;47.712;9.082;2023-08-30T09:44:11;96480.41;;;14.95;95.32
6668;BME280;3370;47.712;9.082;2023-08-30T09:46:49;96482.13;;;15.07;96.27
6668;BME280;3370;47.712;9.082;2023-08-30T09:49:22;96476.81;;;15.33;96.56
6668;BME280;3370;47.712;9.082;2023-08-30T09:51:51;96484.34;;;15.36;91.86
6668;BME280;3370;47.712;9.082;2023-08-30T09:54:25;96481.09;;;15.45;91.79
6668;BME280;3370;47.712;9.082;2023-08-30T09:56:51;96484.41;;;15.59;95.46
6668;BME280;3370;47.712;9.082;2023-08-30T09:59:18;96484.22;;;15.73;93.97
6668;BME280;3370;47.712;9.082;2023-08-30T10:01:47;96472.44;;;15.69;92.88
6668;BME280;3370;47.712;9.082;2023-08-30T10:04:20;96468.00;;;15.82;92.89
6668;BME280;3370;47.712;9.082;2023-08-30T10:06:47;96465.16;;;15.74;90.49
6668;BME280;3370;47.712;9.082;2023-08-30T10:09:15;96468.31;;;15.66;92.20
6668;BME280;3370;47.712;9.082;2023-08-30T10:11:41;96455.63;;;15.75;87.34
6668;BME280;3370;47.712;9.082;2023-08-30T10:14:07;96461.63;;;15.75;89.41
6668;BME280;3370;47.712;9.082;2023-08-30T10:16:47;96462.91;;;15.34;89.47
6668;BME280;3370;47.712;9.082;2023-08-30T10:19:27;96460.69;;;15.76;96.46
6668;BME280;3370;47.712;9.082;2023-08-30T10:22:06;96464.66;;;15.69;88.12
6668;BME280;3370;47.712;9.082;2023-08-30T10:25:03;96460.19;;;15.71;87.75
6668;BME280;3370;47.712;9.082;2023-08-30T10:27:31;96457.88;;;15.79;87.45
6668;BME280;3370;47.712;9.082;2023-08-30T10:30:01;96455.41;;;16.00;88.17
6668;BME280;3370;47.712;9.082;2023-08-30T10:32:27;96452.72;;;16.24;89.08
6668;BME280;3370;47.712;9.082;2023-08-30T10:34:52;96449.28;;;16.24;86.89
6668;BME280;3370;47.712;9.082;2023-08-30T10:37:26;96445.38;;;16.18;85.79
6668;BME280;3370;47.712;9.082;2023-08-30T10:39:53;96442.78;;;16.52;90.44
6668;BME280;3370;47.712;9.082;2023-08-30T10:42:23;96444.41;;;16.64;88.54
6668;BME280;3370;47.712;9.082;2023-08-30T10:44:57;96444.72;;;16.71;83.59
6668;BME280;3370;47.712;9.082;2023-08-30T10:47:34;96440.09;;;16.97;82.08
6668;BME280;3370;47.712;9.082;2023-08-30T10:50:09;96432.69;;;17.14;80.45
6668;BME280;3370;47.712;9.082;2023-08-30T10:52:36;96436.34;;;16.79;81.30
6668;BME280;3370;47.712;9.082;2023-08-30T10:55:14;96433.03;;;16.88;84.36
6668;BME280;3370;47.712;9.082;2023-08-30T10:57:45;96424.09;;;17.13;82.13
6668;BME280;3370;47.712;9.082;2023-08-30T11:00:23;96430.34;;;17.53;82.72
6668;BME280;3370;47.712;9.082;2023-08-30T11:02:51;96425.66;;;17.04;77.77
6668;BME280;3370;47.712;9.082;2023-08-30T11:05:22;96428.84;;;17.29;78.26
6668;BME280;3370;47.712;9.082;2023-08-30T11:07:49;96423.53;;;17.52;76.51
6668;BME280;3370;47.712;9.082;2023-08-30T11:10:17;96429.81;;;17.91;77.20
6668;BME280;3370;47.712;9.082;2023-08-30T11:12:45;96421.97;;;18.22;73.08
6668;BME280;3370;47.712;9.082;2023-08-30T11:15:13;96421.47;;;18.38;73.74
6668;BME280;3370;47.712;9.082;2023-08-30T11:17:43;96423.31;;;18.16;74.29
6668;BME280;3370;47.712;9.082;2023-08-30T11:20:16;96414.38;;;18.59;74.30
6668;BME280;3370;47.712;9.082;2023-08-30T11:22:46;96408.00;;;19.03;73.72
6668;BME280;3370;47.712;9.082;2023-08-30T11:25:13;96402.25;;;18.99;67.60
6668;BME280;3370;47.712;9.082;2023-08-30T11:27:40;96405.38;;;18.73;66.06
6668;BME280;3370;47.712;9.082;2023-08-30T11:30:08;96399.53;;;19.01;68.48
6668;BME280;3370;47.712;9.082;2023-08-30T11:32:42;96405.88;;;19.65;68.71
6668;BME280;3370;47.712;9.082;2023-08-30T11:35:11;96405.94;;;19.35;67.38
6668;BME280;3370;47.712;9.082;2023-08-30T11:37:37;96398.47;;;19.60;66.41
6668;BME280;3370;47.712;9.082;2023-08-30T11:40:04;96392.69;;;20.41;64.05
6668;BME280;3370;47.712;9.082;2023-08-30T11:42:31;96395.88;;;20.07;62.69
6668;BME280;3370;47.712;9.082;2023-08-30T11:44:58;96393.19;;;20.45;63.56
6668;BME280;3370;47.712;9.082;2023-08-30T11:47:26;96398.09;;;20.58;61.77
6668;BME280;3370;47.712;9.082;2023-08-30T11:49:57;96392.91;;;20.94;61.82
6668;BME280;3370;47.712;9.082;2023-08-30T11:52:25;96395.88;;;21.17;63.09
6668;BME280;3370;47.712;9.082;2023-08-30T11:54:51;96388.13;;;20.89;58.26
6668;BME280;3370;47.712;9.082;2023-08-30T11:57:17;96382.47;;;21.56;58.86
6668;BME280;3370;47.712;9.082;2023-08-30T11:59:43;96385.09;;;21.38;56.83
6668;BME280;3370;47.712;9.082;2023-08-30T12:02:12;96381.75;;;21.28;57.45
6668;BME280;3370;47.712;9.082;2023-08-30T12:04:43;96380.00;;;20.92;57.63
6668;BME280;3370;47.712;9.082;2023-08-30T12:07:09;96392.13;;;19.82;57.24
6668;BME280;3370;47.712;9.082;2023-08-30T12:09:36;96382.91;;;20.71;57.06
6668;BME280;3370;47.712;9.082;2023-08-30T12:12:10;96390.50;;;20.37;54.95
6668;BME280;3370;47.712;9.082;2023-08-30T12:14:36;96390.25;;;20.30;56.33
6668;BME280;3370;47.712;9.082;2023-08-30T12:17:03;96383.97;;;20.23;55.98
6668;BME280;3370;47.712;9.082;2023-08-30T12:19:29;96391.75;;;20.05;58.19
6668;BME280;3370;47.712;9.082;2023-08-30T12:21:55;96387.75;;;19.63;56.49
6668;BME280;3370;47.712;9.082;2023-08-30T12:24:23;96386.31;;;19.98;57.53
6668;BME280;3370;47.712;9.082;2023-08-30T12:26:49;96391.38;;;20.00;56.34
6668;BME280;3370;47.712;9.082;2023-08-30T12:29:15;96379.03;;;20.47;56.35
6668;BME280;3370;47.712;9.082;2023-08-30T12:31:41;96376.59;;;20.18;55.23
6668;BME280;3370;47.712;9.082;2023-08-30T12:34:06;96374.31;;;20.97;53.92
6668;BME280;3370;47.712;9.082;2023-08-30T12:36:32;96376.91;;;20.61;54.60
6668;BME280;3370;47.712;9.082;2023-08-30T12:38:58;96373.41;;;20.70;56.78
6668;BME280;3370;47.712;9.082;2023-08-30T12:41:24;96375.56;;;21.47;55.04
6668;BME280;3370;47.712;9.082;2023-08-30T12:43:50;96373.75;;;21.47;54.08
6668;BME280;3370;47.712;9.082;2023-08-30T12:46:16;96366.56;;;21.31;53.35
6668;BME280;3370;47.712;9.082;2023-08-30T12:48:42;96371.00;;;21.31;53.28
6668;BME280;3370;47.712;9.082;2023-08-30T12:51:08;96364.75;;;20.87;52.26
6668;BME280;3370;47.712;9.082;2023-08-30T12:53:34;96364.16;;;20.94;53.09
6668;BME280;3370;47.712;9.082;2023-08-30T12:55:59;96369.34;;;21.30;52.01
6668;BME280;3370;47.712;9.082;2023-08-30T12:58:25;96361.44;;;21.66;57.33
6668;BME280;3370;47.712;9.082;2023-08-30T13:00:51;96358.75;;;21.13;54.95
6668;BME280;3370;47.712;9.082;2023-08-30T13:03:17;96369.09;;;20.79;55.26
6668;BME280;3370;47.712;9.082;2023-08-30T13:05:42;96363.09;;;20.86;53.46
6668;BME280;3370;47.712;9.082;2023-08-30T13:08:08;96369.88;;;21.15;56.31
6668;BME280;3370;47.712;9.082;2023-08-30T13:10:34;96362.03;;;21.15;53.22
6668;BME280;3370;47.712;9.082;2023-08-30T13:13:00;96365.56;;;22.11;51.81
6668;BME280;3370;47.712;9.082;2023-08-30T13:15:25;96358.56;;;22.19;51.44
6668;BME280;3370;47.712;9.082;2023-08-30T13:17:51;96366.38;;;21.77;51.76
6668;BME280;3370;47.712;9.082;2023-08-30T13:20:18;96362.28;;;21.48;53.06
6668;BME280;3370;47.712;9.082;2023-08-30T13:22:43;96360.94;;;21.44;52.41
6668;BME280;3370;47.712;9.082;2023-08-30T13:25:09;96361.81;;;22.13;51.13
6668;BME280;3370;47.712;9.082;2023-08-30T13:27:35;96357.84;;;22.44;49.08